createdAt,value
2019-01-15T00:02:06.916Z,2.33
2019-01-15T00:12:07.972Z,2.48
2019-01-15T00:22:06.942Z,2.60
2019-01-15T00:32:06.920Z,2.67
2019-01-15T00:42:07.046Z,2.70
2019-01-15T00:52:06.915Z,2.78
2019-01-15T01:02:06.842Z,2.81
2019-01-15T01:12:06.906Z,2.82
2019-01-15T01:22:06.857Z,2.81
2019-01-15T01:32:06.944Z,2.83
2019-01-15T01:42:06.952Z,2.88
2019-01-15T01:52:07.353Z,2.88
2019-01-15T02:02:06.871Z,2.94
2019-01-15T02:12:06.894Z,2.93
2019-01-15T02:22:07.774Z,3.00
2019-01-15T02:32:06.919Z,3.06
2019-01-15T02:42:06.978Z,3.10
2019-01-15T02:52:06.840Z,3.15
2019-01-15T03:02:06.978Z,3.17
2019-01-15T03:12:06.926Z,3.18
2019-01-15T03:22:06.875Z,3.20
2019-01-15T03:32:06.857Z,3.23
2019-01-15T03:42:06.939Z,3.24
2019-01-15T03:52:06.774Z,3.18
2019-01-15T04:02:06.796Z,3.19
2019-01-15T04:12:07.500Z,3.18
2019-01-15T04:22:06.883Z,3.15
2019-01-15T04:32:06.911Z,3.21
2019-01-15T04:42:06.855Z,3.24
2019-01-15T04:52:06.809Z,3.28
2019-01-15T05:02:06.907Z,3.35
2019-01-15T05:12:06.780Z,3.47
2019-01-15T05:22:06.837Z,3.52
2019-01-15T05:32:06.841Z,3.54
2019-01-15T05:42:06.965Z,3.59
2019-01-15T05:52:06.813Z,3.67
2019-01-15T06:02:06.895Z,3.74
2019-01-15T06:12:07.334Z,3.78
2019-01-15T06:22:06.998Z,3.72
2019-01-15T06:32:06.844Z,3.68
2019-01-15T06:42:06.807Z,3.72
2019-01-15T06:52:07.558Z,3.77
2019-01-15T07:02:06.874Z,3.86
2019-01-15T07:12:06.838Z,4.01
2019-01-15T07:22:06.944Z,4.07
2019-01-15T07:32:06.774Z,4.18
2019-01-15T07:42:07.837Z,4.29
2019-01-15T07:52:08.930Z,4.40
2019-01-15T08:02:06.834Z,4.52
2019-01-15T08:12:07.052Z,4.62
2019-01-15T08:22:06.840Z,4.72
2019-01-15T08:32:06.772Z,4.84
2019-01-15T08:42:07.176Z,4.89
2019-01-15T08:52:14.036Z,4.97
2019-01-15T09:02:06.868Z,5.09
2019-01-15T09:12:06.758Z,5.14
2019-01-15T09:22:06.750Z,5.21
2019-01-15T09:32:06.762Z,5.32
2019-01-15T09:42:06.777Z,5.39
2019-01-15T09:52:13.050Z,5.57
2019-01-15T10:02:06.977Z,5.90
2019-01-15T10:12:06.997Z,6.06
2019-01-15T10:22:06.803Z,6.30
2019-01-15T10:32:06.785Z,6.60
2019-01-15T10:42:06.764Z,6.62
2019-01-15T10:52:07.095Z,6.73
2019-01-15T11:02:06.736Z,6.55
2019-01-15T11:12:06.804Z,6.73
2019-01-15T11:22:07.701Z,6.79
2019-01-15T11:32:06.795Z,7.60
2019-01-15T11:42:07.239Z,7.72
2019-01-15T11:52:06.740Z,7.28
2019-01-15T12:02:07.439Z,7.14
2019-01-15T12:12:06.759Z,7.44
2019-01-15T12:22:06.977Z,6.95
2019-01-15T12:32:06.983Z,6.86
2019-01-15T12:42:06.766Z,6.72
2019-01-15T12:52:07.366Z,6.60
2019-01-15T13:02:06.914Z,6.51
2019-01-15T13:12:06.898Z,6.44
2019-01-15T13:22:06.763Z,6.43
2019-01-15T13:32:06.782Z,6.46
2019-01-15T13:42:06.886Z,6.54
2019-01-15T13:52:07.105Z,6.51
2019-01-15T14:02:06.889Z,6.37
2019-01-15T14:12:07.089Z,6.43
2019-01-15T14:22:06.765Z,6.34
2019-01-15T14:32:06.720Z,6.20
2019-01-15T14:42:08.129Z,6.20
2019-01-15T14:52:06.753Z,6.19
2019-01-15T15:02:06.759Z,6.07
2019-01-15T15:12:06.886Z,6.03
2019-01-15T15:22:06.829Z,6.05
2019-01-15T15:32:06.680Z,6.01
2019-01-15T15:42:06.826Z,6.01
2019-01-15T15:52:06.725Z,6.04
2019-01-15T16:02:06.964Z,6.05
2019-01-15T16:12:10.896Z,6.06
2019-01-15T16:22:07.702Z,6.03
2019-01-15T16:32:06.768Z,5.92
2019-01-15T16:42:06.718Z,5.90
2019-01-15T16:52:07.326Z,5.89
2019-01-15T17:02:07.824Z,5.88
2019-01-15T17:12:06.759Z,5.86
2019-01-15T17:22:06.679Z,5.81
2019-01-15T17:32:06.715Z,5.79
2019-01-15T17:42:06.744Z,5.78
2019-01-15T17:52:06.882Z,5.74
2019-01-15T18:02:06.974Z,5.74
2019-01-15T18:12:06.894Z,5.73
2019-01-15T18:22:06.759Z,5.78
2019-01-15T18:32:06.642Z,5.78
2019-01-15T18:42:06.777Z,5.76
2019-01-15T18:52:06.717Z,5.73
2019-01-15T19:02:06.678Z,5.66
2019-01-15T19:12:06.703Z,5.61
2019-01-15T19:22:06.708Z,5.64
2019-01-15T19:32:07.499Z,5.65
2019-01-15T19:42:09.619Z,5.69
2019-01-15T19:52:06.663Z,5.75
2019-01-15T20:02:06.713Z,5.71
2019-01-15T20:12:06.748Z,5.61
2019-01-15T20:22:06.725Z,5.44
2019-01-15T20:32:07.238Z,5.42
2019-01-15T20:42:06.744Z,5.45
2019-01-15T20:52:06.738Z,5.55
2019-01-15T21:02:06.711Z,5.57
2019-01-15T21:12:06.610Z,5.56
2019-01-15T21:22:06.674Z,5.56
2019-01-15T21:32:07.620Z,5.61
2019-01-15T21:42:06.709Z,5.63
2019-01-15T21:52:06.712Z,5.64
2019-01-15T22:02:06.590Z,5.65
2019-01-15T22:12:06.586Z,5.66
2019-01-15T22:22:06.641Z,5.65
2019-01-15T22:32:06.632Z,5.55
2019-01-15T22:42:06.597Z,5.46
2019-01-15T22:52:06.603Z,5.45
2019-01-15T23:02:06.659Z,5.49
2019-01-15T23:12:08.360Z,5.45
2019-01-15T23:22:06.722Z,5.34
2019-01-15T23:32:06.751Z,5.17
2019-01-15T23:42:06.641Z,5.09
2019-01-15T23:52:06.682Z,4.99
